createdAt,value
2022-10-18T00:01:15.559Z,5.13
2022-10-18T00:06:18.820Z,5.50
2022-10-18T00:08:46.935Z,6.10
2022-10-18T00:11:15.035Z,6.57
2022-10-18T00:13:43.211Z,5.97
2022-10-18T00:16:13.748Z,5.27
2022-10-18T00:18:42.550Z,5.63
2022-10-18T00:21:15.205Z,5.23
2022-10-18T00:23:45.509Z,4.60
2022-10-18T00:26:16.032Z,5.40
2022-10-18T00:28:44.771Z,4.97
2022-10-18T00:31:15.237Z,4.70
2022-10-18T00:33:44.275Z,4.37
2022-10-18T00:36:12.866Z,5.03
2022-10-18T00:38:41.669Z,4.80
2022-10-18T00:41:14.110Z,4.90
2022-10-18T00:43:56.760Z,4.97
2022-10-18T00:46:25.994Z,4.50
2022-10-18T00:48:56.056Z,5.03
2022-10-18T00:51:26.906Z,5.07
2022-10-18T00:53:55.154Z,5.03
2022-10-18T00:56:24.848Z,6.27
2022-10-18T00:58:53.580Z,5.63
2022-10-18T01:01:24.468Z,5.60
2022-10-18T01:03:56.968Z,5.87
2022-10-18T01:06:26.054Z,6.13
2022-10-18T01:09:10.333Z,5.67
2022-10-18T01:12:01.079Z,6.70
2022-10-18T01:14:41.209Z,6.13
2022-10-18T01:17:14.938Z,5.73
2022-10-18T01:20:19.562Z,6.80
2022-10-18T01:22:52.681Z,5.50
2022-10-18T01:25:37.750Z,6.70
2022-10-18T01:28:21.464Z,6.37
2022-10-18T01:30:57.728Z,6.23
2022-10-18T01:33:34.527Z,6.90
2022-10-18T01:36:07.489Z,6.77
2022-10-18T01:38:38.087Z,6.13
2022-10-18T01:41:13.141Z,6.17
2022-10-18T01:43:44.834Z,5.67
2022-10-18T01:46:18.573Z,6.93
2022-10-18T01:48:47.129Z,6.27
2022-10-18T01:51:15.203Z,7.40
2022-10-18T01:53:43.756Z,7.07
2022-10-18T01:56:23.441Z,6.97
2022-10-18T01:59:02.452Z,6.97
2022-10-18T02:01:41.472Z,7.13
2022-10-18T02:04:20.697Z,7.17
2022-10-18T02:06:57.223Z,6.50
2022-10-18T02:09:33.816Z,6.63
2022-10-18T02:12:03.158Z,6.37
2022-10-18T02:14:33.221Z,5.97
2022-10-18T02:17:07.491Z,6.17
2022-10-18T02:19:39.661Z,6.40
2022-10-18T02:22:09.701Z,6.33
2022-10-18T02:24:40.439Z,5.57
2022-10-18T02:27:09.525Z,6.30
2022-10-18T02:29:38.019Z,5.53
2022-10-18T02:32:12.831Z,4.90
2022-10-18T02:34:43.898Z,4.77
2022-10-18T02:37:15.016Z,3.33
2022-10-18T02:39:47.350Z,3.03
2022-10-18T02:42:16.851Z,2.83
2022-10-18T02:44:45.000Z,2.57
2022-10-18T02:47:14.494Z,3.03
2022-10-18T02:49:42.870Z,2.57
2022-10-18T02:52:10.985Z,2.43
2022-10-18T02:54:39.042Z,2.30
2022-10-18T02:57:07.103Z,2.23
2022-10-18T02:59:35.610Z,1.97
2022-10-18T03:02:03.637Z,2.83
2022-10-18T03:04:33.178Z,2.70
2022-10-18T03:07:01.228Z,2.20
2022-10-18T03:09:29.661Z,2.63
2022-10-18T03:11:57.769Z,2.60
2022-10-18T03:14:25.915Z,2.53
2022-10-18T03:16:53.991Z,2.30
2022-10-18T03:19:22.062Z,2.43
2022-10-18T03:21:51.483Z,2.40
2022-10-18T03:24:19.550Z,2.70
2022-10-18T03:26:48.030Z,2.37
2022-10-18T03:29:16.103Z,2.27
2022-10-18T03:31:44.361Z,2.53
2022-10-18T03:34:12.503Z,2.47
2022-10-18T03:36:41.388Z,1.97
2022-10-18T03:39:12.318Z,2.17
2022-10-18T03:41:41.874Z,2.00
2022-10-18T03:44:10.030Z,2.00
2022-10-18T03:46:38.060Z,1.90
2022-10-18T03:49:06.181Z,1.93
2022-10-18T03:51:34.767Z,1.50
2022-10-18T03:54:02.782Z,2.03
2022-10-18T03:56:32.943Z,1.77
2022-10-18T03:59:01.014Z,1.90
2022-10-18T04:01:29.417Z,2.13
2022-10-18T04:03:57.587Z,2.10
2022-10-18T04:06:26.820Z,2.17
2022-10-18T04:08:56.264Z,2.03
2022-10-18T04:11:25.022Z,2.40
2022-10-18T04:13:54.510Z,2.50
2022-10-18T04:16:22.607Z,2.87
2022-10-18T04:18:50.728Z,3.20
2022-10-18T04:21:18.859Z,2.53
2022-10-18T04:23:48.583Z,2.60
2022-10-18T04:26:17.128Z,2.10
2022-10-18T04:28:45.934Z,2.70
2022-10-18T04:31:15.433Z,2.67
2022-10-18T04:33:43.631Z,2.97
2022-10-18T04:36:11.717Z,3.33
2022-10-18T04:38:41.192Z,3.57
2022-10-18T04:41:09.311Z,4.07
2022-10-18T04:43:37.382Z,4.27
2022-10-18T04:46:05.471Z,3.80
2022-10-18T04:48:35.464Z,3.90
2022-10-18T04:51:03.538Z,4.00
2022-10-18T04:53:31.626Z,4.27
2022-10-18T04:55:59.819Z,4.17
2022-10-18T04:58:28.450Z,4.17
2022-10-18T05:00:56.476Z,5.07
2022-10-18T05:03:24.646Z,5.23
2022-10-18T05:06:01.649Z,5.67
2022-10-18T05:08:30.616Z,6.00
2022-10-18T05:10:58.782Z,5.80
2022-10-18T05:13:27.286Z,6.43
2022-10-18T05:15:55.920Z,6.07
2022-10-18T05:18:24.049Z,7.10
2022-10-18T05:20:52.141Z,7.40
2022-10-18T05:23:21.599Z,7.90
2022-10-18T05:25:49.694Z,12.97
2022-10-18T05:28:38.624Z,12.07
2022-10-18T05:31:07.573Z,12.83
2022-10-18T05:33:35.987Z,13.50
2022-10-18T05:36:04.298Z,13.77
2022-10-18T05:38:34.011Z,14.07
2022-10-18T05:41:05.428Z,14.83
2022-10-18T05:43:34.088Z,14.33
2022-10-18T05:46:02.434Z,15.17
2022-10-18T05:48:30.627Z,15.03
2022-10-18T05:51:00.161Z,16.43
2022-10-18T05:53:36.755Z,16.27
2022-10-18T05:56:08.022Z,17.53
2022-10-18T05:58:37.306Z,17.00
2022-10-18T06:01:06.641Z,18.27
2022-10-18T06:03:34.847Z,16.47
2022-10-18T06:06:05.075Z,18.57
2022-10-18T06:08:33.583Z,18.77
2022-10-18T06:11:01.834Z,20.10
2022-10-18T06:13:33.720Z,19.87
2022-10-18T06:16:02.438Z,21.33
2022-10-18T06:18:30.869Z,22.03
2022-10-18T06:20:59.793Z,21.97
2022-10-18T06:23:28.580Z,23.30
2022-10-18T06:26:00.493Z,24.47
2022-10-18T06:28:31.420Z,25.17
2022-10-18T06:30:59.981Z,25.37
2022-10-18T06:33:28.533Z,28.43
2022-10-18T06:35:58.307Z,27.87
2022-10-18T06:38:26.942Z,26.47
2022-10-18T06:40:55.274Z,26.63
2022-10-18T06:43:23.569Z,27.33
2022-10-18T06:45:54.073Z,27.27
2022-10-18T06:48:23.135Z,27.47
2022-10-18T06:50:56.989Z,29.10
2022-10-18T06:53:25.910Z,28.07
2022-10-18T06:55:54.428Z,26.87
2022-10-18T06:58:23.147Z,26.77
2022-10-18T07:00:52.725Z,27.00
2022-10-18T07:03:22.079Z,28.07
2022-10-18T07:05:53.517Z,27.47
2022-10-18T07:08:21.746Z,27.67
2022-10-18T07:10:54.072Z,29.47
2022-10-18T07:13:38.593Z,29.17
2022-10-18T07:16:12.804Z,28.90
2022-10-18T07:18:46.501Z,29.33
2022-10-18T07:21:16.615Z,31.87
2022-10-18T07:23:47.108Z,31.20
2022-10-18T07:26:16.633Z,32.07
2022-10-18T07:28:47.042Z,31.10
2022-10-18T07:31:16.935Z,33.60
2022-10-18T07:33:45.192Z,32.07
2022-10-18T07:36:14.455Z,30.93
2022-10-18T07:38:42.830Z,33.47
2022-10-18T07:41:13.917Z,30.93
2022-10-18T07:43:44.595Z,32.03
2022-10-18T07:46:13.276Z,31.30
2022-10-18T07:48:44.639Z,31.30
2022-10-18T07:51:13.723Z,32.73
2022-10-18T07:53:42.189Z,31.43
2022-10-18T07:56:16.187Z,31.33
2022-10-18T07:58:45.305Z,33.23
2022-10-18T08:01:14.406Z,31.73
2022-10-18T08:03:44.955Z,31.33
2022-10-18T08:06:14.906Z,29.87
2022-10-18T08:08:43.450Z,31.17
2022-10-18T08:11:15.089Z,30.47
2022-10-18T08:13:43.765Z,30.60
2022-10-18T08:16:15.277Z,29.60
2022-10-18T08:18:45.117Z,30.47
2022-10-18T08:21:15.048Z,29.27
2022-10-18T08:23:43.804Z,31.07
2022-10-18T08:26:14.255Z,30.03
2022-10-18T08:28:49.054Z,30.70
2022-10-18T08:31:28.286Z,28.80
2022-10-18T08:33:58.159Z,30.13
2022-10-18T08:36:32.554Z,29.80
2022-10-18T08:39:02.987Z,31.57
2022-10-18T08:42:04.033Z,30.47
2022-10-18T08:44:34.023Z,28.63
2022-10-18T08:50:45.463Z,28.30
2022-10-18T08:53:20.635Z,27.73
2022-10-18T08:55:53.586Z,27.70
2022-10-18T08:58:23.889Z,28.03
2022-10-18T09:01:03.858Z,27.87
2022-10-18T09:03:59.075Z,29.40
2022-10-18T09:06:35.528Z,28.60
2022-10-18T09:09:19.814Z,33.63
2022-10-18T09:12:02.072Z,29.50
2022-10-18T09:15:02.363Z,27.50
2022-10-18T09:17:38.638Z,27.30
2022-10-18T09:20:23.888Z,31.33
2022-10-18T09:23:02.867Z,30.40
2022-10-18T09:25:38.218Z,28.47
2022-10-18T09:28:17.537Z,30.80
2022-10-18T09:30:54.809Z,27.77
2022-10-18T09:33:39.918Z,27.13
2022-10-18T09:36:10.564Z,28.87
2022-10-18T09:38:45.601Z,27.90
2022-10-18T09:41:20.799Z,27.43
2022-10-18T09:43:53.871Z,25.57
2022-10-18T09:46:26.186Z,25.47
2022-10-18T09:48:59.829Z,26.27
2022-10-18T09:51:31.930Z,26.10
2022-10-18T09:54:19.148Z,25.40
2022-10-18T09:56:51.152Z,23.87
2022-10-18T09:59:38.873Z,25.37
2022-10-18T10:02:07.798Z,26.80
2022-10-18T10:04:36.493Z,27.37
2022-10-18T10:07:10.182Z,26.80
2022-10-18T10:09:45.874Z,26.10
2022-10-18T10:12:33.960Z,27.03
2022-10-18T10:15:11.022Z,26.30
2022-10-18T10:17:39.618Z,27.43
2022-10-18T10:20:22.116Z,26.47
2022-10-18T10:22:52.094Z,23.70
2022-10-18T10:25:32.519Z,25.57
2022-10-18T10:28:05.168Z,24.03
2022-10-18T10:30:35.500Z,24.53
2022-10-18T10:33:04.346Z,24.50
2022-10-18T10:35:53.625Z,22.57
2022-10-18T10:38:27.119Z,22.50
2022-10-18T10:40:57.147Z,22.93
2022-10-18T10:43:44.063Z,22.37
2022-10-18T10:46:14.888Z,19.67
2022-10-18T10:49:09.558Z,19.37
2022-10-18T10:51:44.016Z,20.57
2022-10-18T10:54:23.254Z,19.70
2022-10-18T10:57:04.939Z,16.20
2022-10-18T10:59:43.137Z,18.87
2022-10-18T11:02:23.104Z,17.43
2022-10-18T11:04:52.558Z,17.37
2022-10-18T11:07:26.979Z,15.93
2022-10-18T11:10:05.668Z,15.13
2022-10-18T11:12:39.206Z,13.70
2022-10-18T11:15:20.221Z,13.03
2022-10-18T11:18:00.348Z,13.90
2022-10-18T11:20:33.145Z,13.27
2022-10-18T11:23:04.297Z,16.10
2022-10-18T11:25:58.347Z,15.23
2022-10-18T11:28:54.117Z,16.17
2022-10-18T11:31:28.673Z,16.37
2022-10-18T11:34:22.513Z,15.87
2022-10-18T11:37:15.585Z,16.13
2022-10-18T11:39:55.885Z,15.73
2022-10-18T11:42:32.907Z,15.87
2022-10-18T11:45:20.473Z,15.73
2022-10-18T11:47:56.026Z,16.13
2022-10-18T11:50:34.491Z,15.60
2022-10-18T11:53:12.341Z,15.67
2022-10-18T11:55:51.269Z,15.20
2022-10-18T11:58:39.378Z,15.30
2022-10-18T12:01:28.400Z,12.73
2022-10-18T12:04:03.726Z,12.50
2022-10-18T12:06:35.941Z,11.70
2022-10-18T12:09:15.742Z,10.70
2022-10-18T12:11:52.290Z,11.13
2022-10-18T12:14:28.208Z,10.87
2022-10-18T12:17:35.694Z,10.53
2022-10-18T12:19:53.370Z,11.30
2022-10-18T12:22:26.475Z,10.40
2022-10-18T12:24:54.703Z,10.07
2022-10-18T12:27:33.982Z,10.03
2022-10-18T12:30:07.844Z,8.43
2022-10-18T12:32:38.592Z,8.97
2022-10-18T12:35:13.155Z,8.33
2022-10-18T12:38:07.264Z,9.00
2022-10-18T12:40:39.680Z,8.83
2022-10-18T12:43:18.299Z,10.57
2022-10-18T12:45:53.092Z,12.17
2022-10-18T12:48:33.529Z,11.07
2022-10-18T12:51:07.593Z,10.10
2022-10-18T12:53:36.555Z,11.00
2022-10-18T12:56:38.031Z,9.83
2022-10-18T12:59:39.538Z,9.17
2022-10-18T13:02:28.571Z,9.13
2022-10-18T13:07:43.629Z,9.13
2022-10-18T13:10:36.427Z,8.27
2022-10-18T13:13:39.578Z,8.97
2022-10-18T13:16:24.705Z,9.50
2022-10-18T13:18:55.705Z,7.90
2022-10-18T13:21:35.351Z,9.33
2022-10-18T13:24:26.130Z,9.10
2022-10-18T13:27:42.481Z,9.43
2022-10-18T13:30:31.507Z,7.03
2022-10-18T13:33:17.113Z,7.50
2022-10-18T13:35:54.980Z,9.33
2022-10-18T13:38:48.408Z,7.53
2022-10-18T13:41:20.157Z,9.57
2022-10-18T13:44:20.109Z,8.67
2022-10-18T13:47:36.173Z,9.60
2022-10-18T13:50:30.549Z,9.47
2022-10-18T13:53:31.688Z,8.00
2022-10-18T13:56:26.290Z,9.60
2022-10-18T13:59:15.016Z,9.73
2022-10-18T14:01:57.974Z,9.40
2022-10-18T14:05:23.664Z,9.87
2022-10-18T14:08:00.420Z,9.50
2022-10-18T14:10:57.342Z,9.80
2022-10-18T14:13:35.412Z,10.33
2022-10-18T14:16:11.580Z,9.40
2022-10-18T14:18:44.013Z,10.73
2022-10-18T14:21:21.938Z,10.13
2022-10-18T14:23:52.322Z,10.63
2022-10-18T14:26:23.004Z,9.40
2022-10-18T14:29:07.275Z,9.83
2022-10-18T14:31:36.314Z,10.07
2022-10-18T14:34:04.567Z,10.43
2022-10-18T14:36:40.883Z,9.83
2022-10-18T14:39:19.550Z,9.87
2022-10-18T14:41:52.359Z,9.53
2022-10-18T14:44:27.419Z,9.60
2022-10-18T14:47:02.134Z,10.60
2022-10-18T14:49:31.409Z,10.07
2022-10-18T14:52:01.541Z,10.53
2022-10-18T14:54:33.174Z,10.33
2022-10-18T14:57:01.965Z,10.20
2022-10-18T14:59:39.073Z,9.90
2022-10-18T15:02:15.201Z,11.90
2022-10-18T15:04:45.844Z,10.63
2022-10-18T15:07:17.494Z,11.37
2022-10-18T15:09:46.590Z,10.97
2022-10-18T15:12:16.302Z,10.43
2022-10-18T15:14:46.789Z,10.77
2022-10-18T15:17:19.705Z,10.23
2022-10-18T15:19:59.359Z,10.63
2022-10-18T15:22:32.350Z,10.43
2022-10-18T15:25:19.157Z,11.30
2022-10-18T15:27:49.935Z,10.67
2022-10-18T15:30:28.595Z,10.30
2022-10-18T15:32:58.744Z,10.77
2022-10-18T15:35:29.382Z,11.63
2022-10-18T15:38:00.184Z,10.90
2022-10-18T15:40:37.738Z,10.87
2022-10-18T15:43:27.803Z,10.43
2022-10-18T15:46:03.230Z,11.37
2022-10-18T15:48:37.479Z,11.00
2022-10-18T15:51:08.058Z,11.23
2022-10-18T15:53:51.384Z,11.33
2022-10-18T15:56:33.923Z,12.53
2022-10-18T15:59:04.811Z,11.93
2022-10-18T16:01:45.919Z,11.63
2022-10-18T16:04:19.813Z,12.63
2022-10-18T16:06:48.232Z,12.70
2022-10-18T16:09:19.249Z,13.30
2022-10-18T16:11:52.935Z,12.97
2022-10-18T16:14:25.260Z,12.90
2022-10-18T16:16:56.477Z,13.10
2022-10-18T16:19:24.618Z,13.23
2022-10-18T16:22:02.257Z,11.87
2022-10-18T16:24:32.029Z,11.87
2022-10-18T16:27:00.160Z,11.33
2022-10-18T16:29:31.973Z,11.77
2022-10-18T16:32:01.620Z,10.37
2022-10-18T16:34:32.118Z,9.43
2022-10-18T16:37:00.666Z,8.83
2022-10-18T16:39:32.038Z,9.87
2022-10-18T16:42:00.195Z,8.50
2022-10-18T16:44:28.290Z,10.43
2022-10-18T16:46:56.818Z,9.17
2022-10-18T16:49:27.372Z,9.20
2022-10-18T16:51:56.100Z,9.07
2022-10-18T16:54:25.769Z,9.67
2022-10-18T16:56:53.998Z,8.97
2022-10-18T16:59:25.307Z,9.23
2022-10-18T17:01:53.738Z,9.20
2022-10-18T17:04:23.351Z,8.40
2022-10-18T17:06:55.714Z,7.53
2022-10-18T17:09:23.933Z,7.43
2022-10-18T17:11:52.188Z,8.33
2022-10-18T17:14:20.344Z,8.60
2022-10-18T17:16:52.311Z,7.70
2022-10-18T17:19:24.093Z,8.00
2022-10-18T17:21:55.344Z,7.40
2022-10-18T17:24:25.160Z,8.40
2022-10-18T17:26:53.309Z,8.30
2022-10-18T17:29:21.498Z,7.50
2022-10-18T17:31:50.135Z,8.27
2022-10-18T17:34:21.409Z,8.03
2022-10-18T17:36:49.970Z,7.13
2022-10-18T17:39:19.726Z,8.60
2022-10-18T17:41:47.947Z,7.70
2022-10-18T17:44:16.390Z,7.83
2022-10-18T17:46:44.662Z,8.20
2022-10-18T17:49:14.107Z,7.87
2022-10-18T17:51:43.005Z,7.80
2022-10-18T17:54:11.633Z,7.60
2022-10-18T17:56:42.226Z,7.20
2022-10-18T17:59:10.509Z,7.70
2022-10-18T18:01:38.796Z,8.77
2022-10-18T18:04:07.213Z,8.57
2022-10-18T18:06:37.038Z,7.83
2022-10-18T18:09:08.077Z,8.50
2022-10-18T18:11:36.946Z,8.63
2022-10-18T18:14:08.977Z,9.13
2022-10-18T18:16:39.071Z,8.27
2022-10-18T18:19:09.822Z,9.10
2022-10-18T18:21:38.783Z,9.97
2022-10-18T18:24:07.293Z,9.50
2022-10-18T18:26:37.187Z,9.90
2022-10-18T18:29:07.559Z,10.67
2022-10-18T18:31:39.899Z,11.47
2022-10-18T18:34:11.643Z,11.27
2022-10-18T18:36:40.162Z,11.30
2022-10-18T18:39:09.025Z,11.23
2022-10-18T18:41:38.827Z,10.90
2022-10-18T18:44:08.821Z,10.53
2022-10-18T18:46:38.751Z,12.50
2022-10-18T18:49:08.005Z,12.37
2022-10-18T18:51:38.053Z,12.33
2022-10-18T18:54:06.311Z,11.27
2022-10-18T18:56:34.506Z,12.17
2022-10-18T18:59:02.686Z,11.27
2022-10-18T19:01:34.289Z,12.00
2022-10-18T19:04:02.930Z,11.93
2022-10-18T19:06:33.365Z,12.47
2022-10-18T19:09:04.069Z,11.67
2022-10-18T19:11:34.411Z,12.97
2022-10-18T19:14:03.713Z,13.40
2022-10-18T19:16:35.022Z,14.27
2022-10-18T19:19:06.215Z,13.77
2022-10-18T19:21:36.939Z,14.17
2022-10-18T19:24:06.482Z,13.03
2022-10-18T19:26:37.552Z,13.83
2022-10-18T19:29:11.214Z,13.83
2022-10-18T19:31:41.757Z,13.30
2022-10-18T19:34:11.568Z,12.90
2022-10-18T19:36:41.133Z,13.30
2022-10-18T19:39:14.787Z,12.60
2022-10-18T19:41:43.060Z,13.40
2022-10-18T19:44:11.681Z,13.83
2022-10-18T19:46:41.261Z,13.23
2022-10-18T19:49:09.605Z,14.83
2022-10-18T19:51:38.282Z,13.10
2022-10-18T19:54:06.726Z,13.87
2022-10-18T19:56:35.177Z,13.53
2022-10-18T19:59:03.752Z,12.90
2022-10-18T20:01:32.128Z,14.23
2022-10-18T20:04:03.811Z,12.97
2022-10-18T20:06:32.050Z,13.60
2022-10-18T20:09:01.269Z,17.00
2022-10-18T20:11:31.758Z,16.60
2022-10-18T20:14:00.258Z,14.07
2022-10-18T20:16:29.967Z,13.27
2022-10-18T20:18:59.638Z,13.20
2022-10-18T20:21:31.643Z,14.20
2022-10-18T20:24:02.138Z,14.93
2022-10-18T20:26:30.325Z,14.07
2022-10-18T20:28:59.868Z,14.23
2022-10-18T20:31:30.405Z,14.80
2022-10-18T20:34:04.742Z,14.43
2022-10-18T20:36:34.991Z,13.07
2022-10-18T20:39:04.987Z,15.57
2022-10-18T20:41:34.818Z,13.53
2022-10-18T20:44:05.608Z,13.20
2022-10-18T20:46:36.586Z,12.83
2022-10-18T20:49:06.016Z,12.43
2022-10-18T20:51:36.352Z,12.20
2022-10-18T20:56:40.053Z,12.97
2022-10-18T20:59:11.527Z,13.17
2022-10-18T21:01:40.356Z,13.70
2022-10-18T21:04:10.995Z,15.10
2022-10-18T21:06:42.334Z,13.90
2022-10-18T21:09:13.327Z,13.53
2022-10-18T21:11:43.405Z,13.13
2022-10-18T21:14:13.808Z,12.47
2022-10-18T21:16:43.295Z,12.03
2022-10-18T21:19:14.308Z,11.93
2022-10-18T21:21:45.917Z,11.90
2022-10-18T21:24:15.298Z,11.80
2022-10-18T21:26:43.880Z,12.83
2022-10-18T21:29:15.973Z,12.23
2022-10-18T21:31:49.044Z,11.87
2022-10-18T21:34:18.439Z,12.00
2022-10-18T21:36:49.169Z,11.73
2022-10-18T21:39:18.841Z,12.40
2022-10-18T21:41:47.636Z,12.53
2022-10-18T21:44:17.221Z,13.07
2022-10-18T21:46:46.727Z,11.50
2022-10-18T21:49:16.131Z,11.53
2022-10-18T21:51:44.901Z,11.57
2022-10-18T21:54:16.530Z,11.00
2022-10-18T21:56:45.306Z,11.97
2022-10-18T21:59:14.005Z,10.93
2022-10-18T22:01:44.774Z,11.20
2022-10-18T22:04:21.943Z,11.47
2022-10-18T22:06:52.194Z,11.60
2022-10-18T22:09:23.119Z,11.07
2022-10-18T22:11:55.102Z,10.77
2022-10-18T22:14:24.878Z,11.50
2022-10-18T22:16:53.529Z,11.13
2022-10-18T22:19:22.019Z,11.53
2022-10-18T22:21:50.305Z,10.00
2022-10-18T22:24:19.111Z,11.40
2022-10-18T22:26:48.684Z,10.67
2022-10-18T22:29:18.752Z,11.07
2022-10-18T22:31:49.315Z,10.00
2022-10-18T22:34:19.421Z,8.43
2022-10-18T22:36:47.560Z,8.50
2022-10-18T22:39:16.841Z,9.07
2022-10-18T22:41:45.223Z,8.00
2022-10-18T22:44:16.024Z,7.83
2022-10-18T22:46:44.210Z,8.03
2022-10-18T22:49:13.118Z,7.37
2022-10-18T22:51:41.908Z,7.87
2022-10-18T22:54:10.100Z,8.60
2022-10-18T22:56:38.278Z,9.20
2022-10-18T22:59:06.492Z,7.80
2022-10-18T23:01:39.306Z,9.07
2022-10-18T23:04:07.384Z,7.37
2022-10-18T23:06:37.126Z,8.33
2022-10-18T23:09:07.640Z,8.10
2022-10-18T23:11:36.974Z,8.60
2022-10-18T23:14:06.427Z,8.47
2022-10-18T23:16:36.769Z,8.20
2022-10-18T23:19:05.336Z,8.50
2022-10-18T23:21:35.383Z,8.37
2022-10-18T23:24:05.781Z,8.17
2022-10-18T23:26:34.112Z,7.73
2022-10-18T23:29:02.320Z,8.90
2022-10-18T23:31:32.583Z,7.80
2022-10-18T23:34:04.949Z,7.40
2022-10-18T23:36:34.451Z,7.93
2022-10-18T23:39:03.395Z,8.70
2022-10-18T23:41:31.466Z,7.83
2022-10-18T23:43:59.713Z,8.60
2022-10-18T23:46:27.744Z,8.67
2022-10-18T23:48:56.238Z,7.77
2022-10-18T23:51:25.752Z,8.40
2022-10-18T23:53:53.817Z,7.30
2022-10-18T23:56:22.045Z,8.43
2022-10-18T23:58:50.157Z,8.10
